createdAt,value
2022-08-29T00:00:54.347Z,0
2022-08-29T00:02:55.750Z,0
2022-08-29T00:04:57.031Z,0
2022-08-29T00:06:58.709Z,0
2022-08-29T00:08:59.742Z,0
2022-08-29T00:11:00.736Z,0
2022-08-29T00:13:02.520Z,0
2022-08-29T00:15:04.310Z,0
2022-08-29T00:17:06.007Z,0.14
2022-08-29T00:19:07.381Z,0
2022-08-29T00:21:08.335Z,0
2022-08-29T00:23:09.234Z,0
2022-08-29T00:25:10.282Z,0
2022-08-29T00:27:11.507Z,0
2022-08-29T00:29:13.365Z,0
2022-08-29T00:31:14.293Z,0
2022-08-29T00:33:15.327Z,0
2022-08-29T00:35:16.466Z,0
2022-08-29T00:37:18.019Z,0
2022-08-29T00:39:23.115Z,0
2022-08-29T00:41:21.291Z,0
2022-08-29T00:43:22.725Z,0
2022-08-29T00:45:24.148Z,0
2022-08-29T00:47:25.664Z,0
2022-08-29T00:49:27.104Z,0
2022-08-29T00:53:29.565Z,0
2022-08-29T00:55:31.006Z,0
2022-08-29T00:57:32.845Z,0
2022-08-29T00:59:34.306Z,0
2022-08-29T01:01:35.432Z,0
2022-08-29T01:03:37.283Z,0
2022-08-29T01:05:38.477Z,0
2022-08-29T01:09:41.337Z,0
2022-08-29T01:11:42.386Z,0
2022-08-29T01:15:45.419Z,0
2022-08-29T01:17:47.039Z,0
2022-08-29T01:19:48.319Z,0
2022-08-29T01:21:49.875Z,0
2022-08-29T01:23:51.432Z,0
2022-08-29T01:25:52.621Z,0
2022-08-29T01:27:54.451Z,0
2022-08-29T01:29:55.802Z,0
2022-08-29T01:31:58.065Z,0
2022-08-29T01:33:58.893Z,0
2022-08-29T01:36:00.352Z,0
2022-08-29T01:38:01.775Z,0
2022-08-29T01:40:03.481Z,0
2022-08-29T01:42:04.850Z,0
2022-08-29T01:44:06.014Z,0
2022-08-29T01:46:07.897Z,0
2022-08-29T01:48:09.658Z,0
2022-08-29T01:52:12.735Z,0
2022-08-29T01:54:14.051Z,0
2022-08-29T01:56:15.422Z,0
2022-08-29T01:58:16.732Z,0
2022-08-29T02:00:18.515Z,0
2022-08-29T02:02:20.110Z,0
2022-08-29T02:04:21.237Z,0
2022-08-29T02:06:22.342Z,0
2022-08-29T02:08:23.847Z,0
2022-08-29T02:10:25.479Z,0
2022-08-29T02:12:26.981Z,0
2022-08-29T02:14:27.995Z,0
2022-08-29T02:18:30.395Z,0
2022-08-29T02:20:31.884Z,0
2022-08-29T02:22:33.615Z,0
2022-08-29T02:24:35.331Z,0
2022-08-29T02:28:38.537Z,0
2022-08-29T02:30:39.844Z,0
2022-08-29T02:32:41.449Z,0
2022-08-29T02:34:42.465Z,0
2022-08-29T02:36:44.074Z,0
2022-08-29T02:38:45.956Z,0
2022-08-29T02:40:47.181Z,0
2022-08-29T02:42:48.834Z,0
2022-08-29T02:44:50.555Z,0
2022-08-29T02:46:51.783Z,0
2022-08-29T02:48:59.967Z,0
2022-08-29T02:50:54.394Z,0
2022-08-29T02:52:56.112Z,0
2022-08-29T02:54:57.204Z,0
2022-08-29T02:56:58.683Z,0
2022-08-29T02:59:00.449Z,0
2022-08-29T03:01:01.700Z,0
2022-08-29T03:03:03.364Z,0
2022-08-29T03:07:05.905Z,0
2022-08-29T03:09:06.907Z,0
2022-08-29T03:11:08.771Z,0
2022-08-29T03:13:10.071Z,0
2022-08-29T03:15:11.397Z,0
2022-08-29T03:17:12.895Z,0
2022-08-29T03:19:14.454Z,0
2022-08-29T03:21:16.290Z,0
2022-08-29T03:23:17.958Z,0
2022-08-29T03:25:19.626Z,0
2022-08-29T03:27:20.636Z,0
2022-08-29T03:29:22.519Z,0
2022-08-29T03:31:23.853Z,0
2022-08-29T03:33:25.352Z,0
2022-08-29T03:35:27.147Z,0
2022-08-29T03:37:28.815Z,0
2022-08-29T03:39:30.266Z,0
2022-08-29T03:41:31.779Z,0
2022-08-29T03:43:33.102Z,0
2022-08-29T03:45:34.939Z,0
2022-08-29T03:49:37.031Z,0
2022-08-29T03:51:38.547Z,0
2022-08-29T03:53:39.768Z,0
2022-08-29T03:55:41.065Z,0
2022-08-29T03:59:43.533Z,0
2022-08-29T04:01:44.718Z,0
2022-08-29T04:03:46.455Z,0
2022-08-29T04:05:47.541Z,0
2022-08-29T04:07:49.061Z,0
2022-08-29T04:09:50.946Z,0
2022-08-29T04:11:52.331Z,0
2022-08-29T04:13:53.454Z,0
2022-08-29T04:15:54.902Z,0
2022-08-29T04:17:56.713Z,0
2022-08-29T04:19:58.388Z,0
2022-08-29T04:21:59.922Z,0
2022-08-29T04:24:01.525Z,0
2022-08-29T04:26:27.016Z,0
2022-08-29T04:28:04.376Z,0
2022-08-29T04:30:06.345Z,0
2022-08-29T04:32:08.101Z,0
2022-08-29T04:34:09.224Z,0
2022-08-29T04:36:14.419Z,0
2022-08-29T04:38:12.328Z,0
2022-08-29T04:40:13.927Z,0
2022-08-29T04:43:25.681Z,0
2022-08-29T04:45:26.784Z,0
2022-08-29T04:47:28.286Z,0
2022-08-29T04:49:29.267Z,0
2022-08-29T04:51:30.562Z,0
2022-08-29T04:53:32.345Z,0
2022-08-29T04:55:33.465Z,0
2022-08-29T04:57:34.714Z,0
2022-08-29T04:59:36.679Z,0
2022-08-29T05:01:38.498Z,0
2022-08-29T05:03:40.363Z,0
2022-08-29T05:05:41.826Z,0
2022-08-29T05:07:43.290Z,0
2022-08-29T05:09:44.809Z,0
2022-08-29T05:11:46.459Z,0
2022-08-29T05:13:47.530Z,0
2022-08-29T05:15:49.081Z,0
2022-08-29T05:17:50.940Z,0
2022-08-29T05:19:52.227Z,0
2022-08-29T05:21:54.152Z,0
2022-08-29T05:23:55.455Z,0
2022-08-29T05:26:08.600Z,0
2022-08-29T05:27:58.653Z,0
2022-08-29T05:29:59.402Z,0
2022-08-29T05:32:03.106Z,0
2022-08-29T05:34:02.662Z,0
2022-08-29T05:36:04.136Z,0
2022-08-29T05:38:14.850Z,0
2022-08-29T05:40:07.212Z,0
2022-08-29T05:42:08.682Z,0
2022-08-29T05:44:10.156Z,0
2022-08-29T05:46:11.828Z,0
2022-08-29T05:48:13.120Z,0
2022-08-29T05:50:14.373Z,0
2022-08-29T05:52:15.689Z,0
2022-08-29T05:54:17.480Z,0
2022-08-29T05:56:19.310Z,0
2022-08-29T05:58:20.793Z,0
2022-08-29T06:00:21.765Z,0
2022-08-29T06:04:25.325Z,0
2022-08-29T06:06:26.996Z,0
2022-08-29T06:08:29.659Z,0
2022-08-29T06:10:30.501Z,0
2022-08-29T06:12:31.746Z,0
2022-08-29T06:14:33.182Z,0
2022-08-29T06:16:34.516Z,0
2022-08-29T06:18:35.734Z,0
2022-08-29T06:20:37.254Z,1.404
2022-08-29T06:22:40.383Z,0
2022-08-29T06:24:40.559Z,0
2022-08-29T06:26:41.780Z,0
2022-08-29T06:28:42.801Z,0
2022-08-29T06:30:43.731Z,0
2022-08-29T06:32:44.757Z,0.842
2022-08-29T06:34:46.836Z,0
2022-08-29T06:38:58.599Z,0
2022-08-29T06:40:52.370Z,0.421
2022-08-29T06:42:53.094Z,0
2022-08-29T06:44:54.283Z,0
2022-08-29T06:46:55.602Z,0.561
2022-08-29T06:48:56.581Z,0.28
2022-08-29T06:50:57.637Z,1.263
2022-08-29T06:53:09.260Z,0
2022-08-29T06:54:59.918Z,0.561
2022-08-29T06:57:01.711Z,0.28
2022-08-29T06:59:03.319Z,0
2022-08-29T07:01:04.482Z,0.421
2022-08-29T07:03:05.393Z,0
2022-08-29T07:05:06.966Z,0
2022-08-29T07:07:07.778Z,0
2022-08-29T07:09:08.672Z,3.65
2022-08-29T07:11:10.407Z,0.702
2022-08-29T07:15:18.280Z,0
2022-08-29T07:17:19.069Z,0
2022-08-29T07:19:15.800Z,0
2022-08-29T07:21:20.258Z,0
2022-08-29T07:23:18.113Z,0
2022-08-29T07:25:19.611Z,0
2022-08-29T07:27:20.476Z,0
2022-08-29T07:29:21.376Z,0.982
2022-08-29T07:31:23.138Z,3.088
2022-08-29T07:35:30.203Z,0.842
2022-08-29T07:39:29.107Z,0.982
2022-08-29T07:41:30.195Z,2.948
2022-08-29T07:43:31.749Z,1.825
2022-08-29T07:45:33.343Z,1.825
2022-08-29T07:47:34.868Z,1.825
2022-08-29T07:49:41.270Z,0
2022-08-29T07:53:39.028Z,4.633
2022-08-29T07:55:39.850Z,0
2022-08-29T07:57:41.222Z,1.825
2022-08-29T08:03:45.512Z,0.842
2022-08-29T08:05:46.358Z,2.386
2022-08-29T08:07:47.454Z,1.404
2022-08-29T08:09:48.862Z,3.229
2022-08-29T08:11:49.964Z,4.492
2022-08-29T08:13:51.089Z,4.914
2022-08-29T08:15:52.056Z,3.931
2022-08-29T08:17:53.234Z,5.054
2022-08-29T08:19:54.492Z,1.544
2022-08-29T08:21:56.198Z,2.808
2022-08-29T08:23:57.509Z,1.965
2022-08-29T08:25:58.503Z,1.263
2022-08-29T08:27:59.965Z,5.616
2022-08-29T08:32:03.213Z,2.808
2022-08-29T08:34:04.716Z,3.229
2022-08-29T08:36:05.546Z,2.948
2022-08-29T08:38:07.172Z,3.369
2022-08-29T08:40:08.414Z,4.212
2022-08-29T08:42:09.401Z,3.088
2022-08-29T08:44:10.625Z,2.106
2022-08-29T08:46:11.947Z,4.352
2022-08-29T08:48:13.422Z,2.527
2022-08-29T08:50:14.681Z,4.071
2022-08-29T08:52:16.008Z,4.071
2022-08-29T08:54:17.189Z,0.14
2022-08-29T08:56:18.684Z,5.616
2022-08-29T08:58:19.922Z,4.633
2022-08-29T09:02:21.943Z,4.773
2022-08-29T09:04:22.857Z,7.16
2022-08-29T09:06:24.452Z,3.369
2022-08-29T09:08:25.268Z,5.616
2022-08-29T09:10:26.743Z,6.318
2022-08-29T09:14:29.490Z,3.79
2022-08-29T09:16:30.969Z,2.106
2022-08-29T09:18:32.131Z,3.79
2022-08-29T09:20:33.916Z,3.088
2022-08-29T09:22:35.374Z,4.071
2022-08-29T09:24:36.928Z,6.598
2022-08-29T09:26:38.589Z,0.982
2022-08-29T09:28:39.876Z,3.51
2022-08-29T09:30:41.157Z,4.492
2022-08-29T09:35:07.167Z,1.965
2022-08-29T09:36:46.090Z,3.931
2022-08-29T09:38:45.457Z,3.369
2022-08-29T09:40:54.348Z,2.948
2022-08-29T09:42:47.760Z,2.246
2022-08-29T09:44:49.377Z,3.51
2022-08-29T09:46:50.540Z,2.106
2022-08-29T09:48:52.038Z,3.65
2022-08-29T09:50:52.889Z,4.071
2022-08-29T09:52:54.320Z,3.51
2022-08-29T09:54:55.968Z,3.79
2022-08-29T09:56:56.739Z,4.071
2022-08-29T09:58:57.600Z,3.51
2022-08-29T10:00:59.417Z,5.756
2022-08-29T10:03:00.138Z,5.054
2022-08-29T10:05:01.126Z,3.229
2022-08-29T10:07:02.320Z,0.28
2022-08-29T10:09:03.244Z,8.564
2022-08-29T10:11:04.832Z,5.335
2022-08-29T10:13:06.204Z,3.51
2022-08-29T10:15:07.745Z,5.194
2022-08-29T10:17:09.272Z,3.51
2022-08-29T10:19:10.536Z,3.931
2022-08-29T10:21:11.878Z,2.667
2022-08-29T10:23:13.341Z,2.667
2022-08-29T10:25:14.640Z,1.404
2022-08-29T10:27:15.452Z,2.527
2022-08-29T10:29:16.406Z,4.352
2022-08-29T10:31:17.444Z,6.739
2022-08-29T10:33:18.996Z,2.386
2022-08-29T10:35:20.399Z,6.177
2022-08-29T10:37:21.289Z,1.684
2022-08-29T10:39:22.729Z,5.194
2022-08-29T10:43:25.296Z,4.071
2022-08-29T10:45:26.198Z,0.14
2022-08-29T10:47:27.076Z,0.842
2022-08-29T10:49:28.130Z,1.544
2022-08-29T10:51:28.966Z,5.194
2022-08-29T10:53:30.663Z,1.404
2022-08-29T10:55:31.744Z,3.65
2022-08-29T10:57:32.889Z,5.475
2022-08-29T10:59:33.646Z,5.194
2022-08-29T11:01:34.643Z,1.825
2022-08-29T11:03:35.789Z,4.773
2022-08-29T11:05:36.750Z,5.194
2022-08-29T11:07:38.058Z,2.808
2022-08-29T11:09:39.362Z,7.862
2022-08-29T11:13:42.026Z,4.773
2022-08-29T11:15:42.956Z,7.441
2022-08-29T11:17:44.330Z,6.879
2022-08-29T11:19:45.916Z,6.598
2022-08-29T11:21:47.080Z,8.143
2022-08-29T11:23:48.657Z,4.914
2022-08-29T11:25:49.582Z,1.263
2022-08-29T11:26:33.226Z,3.931
2022-08-29T11:28:34.850Z,3.51
2022-08-29T11:30:39.867Z,1.825
2022-08-29T11:32:37.382Z,5.054
2022-08-29T11:36:39.776Z,2.948
2022-08-29T11:38:40.618Z,5.054
2022-08-29T11:41:25.509Z,2.386
2022-08-29T11:42:50.554Z,0.561
2022-08-29T11:44:44.236Z,0.561
2022-08-29T11:46:45.223Z,3.369
2022-08-29T11:48:46.534Z,1.123
2022-08-29T11:50:47.396Z,5.054
2022-08-29T11:52:48.684Z,0.842
2022-08-29T11:54:49.480Z,1.965
2022-08-29T11:58:52.599Z,6.177
2022-08-29T12:00:53.427Z,2.808
2022-08-29T12:02:54.832Z,3.229
2022-08-29T12:04:55.777Z,6.739
2022-08-29T12:08:59.782Z,6.177
2022-08-29T12:10:58.726Z,3.229
2022-08-29T12:12:59.695Z,4.773
2022-08-29T12:17:01.571Z,2.808
2022-08-29T12:19:02.790Z,4.492
2022-08-29T12:21:04.312Z,4.352
2022-08-29T12:23:05.829Z,8.143
2022-08-29T12:25:07.229Z,4.212
2022-08-29T12:27:08.099Z,4.914
2022-08-29T12:29:10.110Z,1.404
2022-08-29T12:31:11.065Z,5.054
2022-08-29T12:33:12.388Z,4.633
2022-08-29T12:35:13.340Z,2.386
2022-08-29T12:37:14.780Z,2.948
2022-08-29T12:39:19.470Z,2.667
2022-08-29T12:41:17.045Z,4.633
2022-08-29T12:43:18.517Z,0.982
2022-08-29T12:45:19.427Z,1.684
2022-08-29T12:47:20.930Z,2.106
2022-08-29T12:49:22.488Z,4.212
2022-08-29T12:51:23.534Z,3.65
2022-08-29T12:53:25.033Z,2.106
2022-08-29T12:55:28.884Z,2.948
2022-08-29T12:57:27.108Z,4.352
2022-08-29T12:59:28.928Z,2.106
2022-08-29T13:01:29.543Z,2.667
2022-08-29T13:03:30.573Z,3.369
2022-08-29T13:07:33.442Z,8.283
2022-08-29T13:09:34.546Z,3.088
2022-08-29T13:11:35.534Z,2.948
2022-08-29T13:13:37.139Z,5.616
2022-08-29T13:17:38.843Z,0.421
2022-08-29T13:19:40.154Z,4.773
2022-08-29T13:21:41.568Z,2.246
2022-08-29T13:23:42.979Z,2.667
2022-08-29T13:25:44.617Z,1.123
2022-08-29T13:27:45.568Z,1.263
2022-08-29T13:29:47.243Z,0
2022-08-29T13:31:48.094Z,1.684
2022-08-29T13:33:48.947Z,1.825
2022-08-29T13:35:49.783Z,1.544
2022-08-29T13:37:50.766Z,4.071
2022-08-29T13:39:52.398Z,1.965
2022-08-29T13:41:53.159Z,1.404
2022-08-29T13:43:54.777Z,3.79
2022-08-29T13:45:56.499Z,0.421
2022-08-29T13:47:58.160Z,4.492
2022-08-29T13:49:59.713Z,4.492
2022-08-29T13:52:00.703Z,2.667
2022-08-29T13:54:01.824Z,5.896
2022-08-29T13:56:02.830Z,1.404
2022-08-29T13:58:04.306Z,1.263
2022-08-29T14:00:05.595Z,1.404
2022-08-29T14:02:09.202Z,9.406
2022-08-29T14:04:34.346Z,1.263
2022-08-29T14:08:10.350Z,2.808
2022-08-29T14:10:11.297Z,3.65
2022-08-29T14:12:12.260Z,1.404
2022-08-29T14:16:14.754Z,2.948
2022-08-29T14:18:15.952Z,4.492
2022-08-29T14:20:16.697Z,0.702
2022-08-29T14:22:17.817Z,3.229
2022-08-29T14:24:19.361Z,3.088
2022-08-29T14:26:20.504Z,5.054
2022-08-29T14:28:21.918Z,1.404
2022-08-29T14:30:22.947Z,2.948
2022-08-29T14:32:23.824Z,0.14
2022-08-29T14:34:25.212Z,3.931
2022-08-29T14:36:26.699Z,2.527
2022-08-29T14:38:27.705Z,4.071
2022-08-29T14:40:29.399Z,5.475
2022-08-29T14:42:30.650Z,4.071
2022-08-29T14:44:32.026Z,5.054
2022-08-29T14:48:34.208Z,5.054
2022-08-29T14:50:35.109Z,2.106
2022-08-29T14:52:36.527Z,1.965
2022-08-29T14:54:37.289Z,0.702
2022-08-29T14:56:47.931Z,4.071
2022-08-29T14:58:39.969Z,2.386
2022-08-29T15:00:41.451Z,1.404
2022-08-29T15:02:42.687Z,4.773
2022-08-29T15:04:43.589Z,3.229
2022-08-29T15:06:44.847Z,2.246
2022-08-29T15:08:46.339Z,3.369
2022-08-29T15:10:47.157Z,4.352
2022-08-29T15:12:47.968Z,5.616
2022-08-29T15:14:49.678Z,2.106
2022-08-29T15:16:50.820Z,1.825
2022-08-29T15:19:31.450Z,6.037
2022-08-29T15:20:53.121Z,3.088
2022-08-29T15:22:54.190Z,4.633
2022-08-29T15:24:55.566Z,7.441
2022-08-29T15:26:56.746Z,5.335
2022-08-29T15:28:57.846Z,7.862
2022-08-29T15:30:59.651Z,4.773
2022-08-29T15:33:00.538Z,5.756
2022-08-29T15:35:01.380Z,2.106
2022-08-29T15:37:02.217Z,7.581
2022-08-29T15:39:03.887Z,2.246
2022-08-29T15:41:04.993Z,3.931
2022-08-29T15:43:06.274Z,1.684
2022-08-29T15:47:10.505Z,3.369
2022-08-29T15:49:08.818Z,1.825
2022-08-29T15:51:09.596Z,1.965
2022-08-29T15:53:10.948Z,2.386
2022-08-29T15:57:13.187Z,4.914
2022-08-29T15:59:14.920Z,6.598
2022-08-29T16:01:16.050Z,5.054
2022-08-29T16:03:17.693Z,3.65
2022-08-29T16:05:19.358Z,1.404
2022-08-29T16:07:20.792Z,3.088
2022-08-29T16:09:21.822Z,5.896
2022-08-29T16:11:22.787Z,1.544
2022-08-29T16:13:24.003Z,4.352
2022-08-29T16:15:25.528Z,0.702
2022-08-29T16:17:26.354Z,2.386
2022-08-29T16:19:27.157Z,3.229
2022-08-29T16:21:28.822Z,1.684
2022-08-29T16:23:30.057Z,2.386
2022-08-29T16:25:31.566Z,0.982
2022-08-29T16:27:32.536Z,0.14
2022-08-29T16:29:34.004Z,0.702
2022-08-29T16:31:34.933Z,0.561
2022-08-29T16:35:38.349Z,1.263
2022-08-29T16:37:39.477Z,6.177
2022-08-29T16:39:40.755Z,3.088
2022-08-29T16:41:42.199Z,3.51
2022-08-29T16:43:42.971Z,1.965
2022-08-29T16:45:44.577Z,1.684
2022-08-29T16:47:47.116Z,3.51
2022-08-29T16:49:46.441Z,1.404
2022-08-29T16:51:47.557Z,2.386
2022-08-29T16:53:48.610Z,2.667
2022-08-29T16:55:49.573Z,2.948
2022-08-29T16:57:50.798Z,3.369
2022-08-29T16:59:51.573Z,4.071
2022-08-29T17:01:52.633Z,4.071
2022-08-29T17:03:54.092Z,5.335
2022-08-29T17:05:55.680Z,3.931
2022-08-29T17:07:56.878Z,1.684
2022-08-29T17:09:58.221Z,0.421
2022-08-29T17:11:59.977Z,0.561
2022-08-29T17:14:01.479Z,0.842
2022-08-29T17:16:03.328Z,0
2022-08-29T17:18:04.020Z,0.982
2022-08-29T17:20:05.111Z,0.702
2022-08-29T17:22:06.151Z,1.684
2022-08-29T17:24:07.652Z,3.088
2022-08-29T17:26:08.960Z,1.123
2022-08-29T17:28:18.349Z,2.246
2022-08-29T17:30:12.235Z,3.79
2022-08-29T17:34:15.141Z,1.544
2022-08-29T17:36:15.988Z,0
2022-08-29T17:38:17.299Z,0
2022-08-29T17:40:18.228Z,1.123
2022-08-29T17:44:20.827Z,0.14
2022-08-29T17:46:22.045Z,0
2022-08-29T17:48:23.292Z,0
2022-08-29T17:50:24.851Z,0
2022-08-29T17:52:25.954Z,0.28
2022-08-29T17:56:28.635Z,0.14
2022-08-29T17:58:29.556Z,0
2022-08-29T18:00:30.555Z,0
2022-08-29T18:02:31.591Z,0.421
2022-08-29T18:04:32.635Z,0
2022-08-29T18:06:33.671Z,0
2022-08-29T18:08:35.131Z,0
2022-08-29T18:10:36.872Z,0
2022-08-29T18:11:20.592Z,0
2022-08-29T18:13:22.225Z,0
2022-08-29T18:15:23.626Z,0
2022-08-29T18:17:25.158Z,0
2022-08-29T18:19:26.041Z,0
2022-08-29T18:21:27.556Z,0
2022-08-29T18:23:28.376Z,0
2022-08-29T18:25:29.848Z,0
2022-08-29T18:27:31.064Z,0
2022-08-29T18:29:32.083Z,0
2022-08-29T18:31:33.507Z,0
2022-08-29T18:33:57.136Z,0
2022-08-29T18:35:35.839Z,0
2022-08-29T18:37:37.158Z,0
2022-08-29T18:39:38.719Z,0
2022-08-29T18:41:39.650Z,0
2022-08-29T18:43:40.953Z,0
2022-08-29T18:45:42.306Z,0
2022-08-29T18:47:43.400Z,0
2022-08-29T18:49:45.227Z,0
2022-08-29T18:51:46.407Z,0
2022-08-29T18:53:56.594Z,0.982
2022-08-29T18:55:50.599Z,0
2022-08-29T18:57:49.981Z,0.421
2022-08-29T18:59:51.930Z,0.421
2022-08-29T19:01:53.726Z,0
2022-08-29T19:03:54.954Z,0
2022-08-29T19:05:56.765Z,0
2022-08-29T19:09:58.871Z,1.263
2022-08-29T19:12:00.457Z,0.982
2022-08-29T19:14:01.924Z,2.948
2022-08-29T19:16:03.359Z,0
2022-08-29T19:18:04.584Z,0
2022-08-29T19:20:10.024Z,0
2022-08-29T19:22:06.916Z,0
2022-08-29T19:24:08.245Z,0
2022-08-29T19:26:09.196Z,1.123
2022-08-29T19:28:10.835Z,1.825
2022-08-29T19:30:12.156Z,0
2022-08-29T19:32:13.688Z,0.14
2022-08-29T19:34:15.027Z,0
2022-08-29T19:36:16.059Z,0
2022-08-29T19:38:17.267Z,0.842
2022-08-29T19:40:18.739Z,0
2022-08-29T19:42:20.297Z,0
2022-08-29T19:44:21.342Z,0
2022-08-29T19:46:22.837Z,0
2022-08-29T19:48:23.781Z,0
2022-08-29T19:50:25.429Z,0
2022-08-29T19:52:27.003Z,0
2022-08-29T19:54:28.828Z,0
2022-08-29T19:56:30.182Z,0
2022-08-29T19:58:32.334Z,0
2022-08-29T20:00:32.994Z,0
2022-08-29T20:02:34.464Z,0
2022-08-29T20:04:35.848Z,0
2022-08-29T20:06:36.849Z,0
2022-08-29T20:08:38.655Z,0
2022-08-29T20:10:40.023Z,0
2022-08-29T20:12:41.097Z,0
2022-08-29T20:14:42.886Z,0
2022-08-29T20:16:43.997Z,0
2022-08-29T20:18:45.311Z,0
2022-08-29T20:20:47.012Z,0
2022-08-29T20:22:48.160Z,0
2022-08-29T20:24:49.970Z,0
2022-08-29T20:26:50.903Z,0
2022-08-29T20:28:51.937Z,0
2022-08-29T20:30:53.326Z,0
2022-08-29T20:32:54.241Z,0
2022-08-29T20:34:56.010Z,0
2022-08-29T20:36:57.100Z,0
2022-08-29T20:38:58.106Z,0
2022-08-29T20:40:59.428Z,0
2022-08-29T20:43:01.058Z,0
2022-08-29T20:45:02.565Z,0
2022-08-29T20:47:03.695Z,0
2022-08-29T20:49:05.245Z,0
2022-08-29T20:51:06.553Z,0
2022-08-29T20:53:07.795Z,0
2022-08-29T20:55:09.509Z,0
2022-08-29T20:57:11.030Z,0
2022-08-29T21:01:14.220Z,0.14
2022-08-29T21:03:15.170Z,0
2022-08-29T21:05:16.000Z,0.842
2022-08-29T21:07:16.994Z,2.246
2022-08-29T21:09:18.069Z,1.965
2022-08-29T21:13:21.157Z,0
2022-08-29T21:17:23.511Z,1.263
2022-08-29T21:19:25.242Z,0.14
2022-08-29T21:21:27.131Z,0
2022-08-29T21:23:28.899Z,0
2022-08-29T21:25:30.519Z,0
2022-08-29T21:27:31.841Z,0
2022-08-29T21:29:32.848Z,0
2022-08-29T21:31:34.413Z,0.28
2022-08-29T21:33:35.674Z,0
2022-08-29T21:35:37.251Z,0.28
2022-08-29T21:37:38.689Z,0
2022-08-29T21:39:40.529Z,0
2022-08-29T21:43:43.286Z,0.28
2022-08-29T21:45:45.202Z,0
2022-08-29T21:47:46.930Z,0
2022-08-29T21:49:48.096Z,0
2022-08-29T21:51:49.850Z,0
2022-08-29T21:53:51.557Z,0
2022-08-29T21:55:52.839Z,0
2022-08-29T21:57:54.263Z,0
2022-08-29T21:59:55.750Z,0
2022-08-29T22:01:56.730Z,0
2022-08-29T22:03:58.250Z,0
2022-08-29T22:05:59.791Z,0.561
2022-08-29T22:08:01.296Z,0
2022-08-29T22:10:02.753Z,0
2022-08-29T22:12:04.556Z,0
2022-08-29T22:16:07.219Z,0.842
2022-08-29T22:18:08.966Z,0
2022-08-29T22:20:10.224Z,0.982
2022-08-29T22:22:12.088Z,0
2022-08-29T22:24:13.643Z,1.263
2022-08-29T22:26:15.158Z,0
2022-08-29T22:28:17.025Z,0
2022-08-29T22:30:18.756Z,0
2022-08-29T22:32:20.544Z,0
2022-08-29T22:34:22.248Z,0
2022-08-29T22:36:23.473Z,0
2022-08-29T22:38:24.830Z,0
2022-08-29T22:40:26.404Z,0
2022-08-29T22:42:27.975Z,0
2022-08-29T22:44:59.444Z,0
2022-08-29T22:46:30.221Z,0
2022-08-29T22:48:31.236Z,0
2022-08-29T22:50:33.048Z,0
2022-08-29T22:52:34.062Z,0
2022-08-29T22:54:35.812Z,0
2022-08-29T22:56:37.470Z,0
2022-08-29T22:58:38.779Z,0
2022-08-29T23:00:39.700Z,0
2022-08-29T23:02:41.632Z,0
2022-08-29T23:04:42.736Z,0
2022-08-29T23:06:44.002Z,0
2022-08-29T23:08:45.479Z,0
2022-08-29T23:10:49.200Z,0
2022-08-29T23:12:49.021Z,0.28
2022-08-29T23:14:50.518Z,0
2022-08-29T23:16:52.119Z,0
2022-08-29T23:18:53.854Z,0
2022-08-29T23:20:55.574Z,0
2022-08-29T23:22:57.455Z,0
2022-08-29T23:24:59.263Z,0
2022-08-29T23:27:01.053Z,0
2022-08-29T23:29:02.847Z,0
2022-08-29T23:31:04.723Z,0
2022-08-29T23:33:05.829Z,0
2022-08-29T23:35:06.979Z,0
2022-08-29T23:37:08.298Z,0
2022-08-29T23:39:09.319Z,0
2022-08-29T23:41:10.244Z,0
2022-08-29T23:43:11.592Z,0
2022-08-29T23:45:13.123Z,0
2022-08-29T23:47:14.734Z,0
2022-08-29T23:49:16.239Z,0
2022-08-29T23:51:17.177Z,0
2022-08-29T23:53:18.801Z,0
2022-08-29T23:55:20.510Z,0
2022-08-29T23:57:21.982Z,0
2022-08-29T23:59:23.400Z,0
